Time;durP1;ratioP1;P1;durP2;ratioP2;P2;SDS_P1;SDS_P2;PMS_P1;PMS_P2;Temp;Humidity;BMP_temperature;BMP_pressure;BME280_temperature;BME280_humidity;BME280_pressure;Samples;Min_cycle;Max_cycle;Signal;HPM_P1;HPM_P2
2022/04/01 00:00:21;;;;;;;6.50;4.35;;;;;;;;;;7392759;19;20033;-79
2022/04/01 00:02:47;;;;;;;6.28;4.55;;;;;;;;;;7394767;19;20031;-78
2022/04/01 00:05:13;;;;;;;6.88;4.68;;;;;;;;;;7394958;19;20360;-79
2022/04/01 00:07:40;;;;;;;7.75;4.78;;;;;;;;;;7394208;19;20007;-79
2022/04/01 00:10:06;;;;;;;6.65;4.53;;;;;;;;;;7394649;19;20014;-80
2022/04/01 00:12:31;;;;;;;6.60;4.40;;;;;;;;;;7420985;19;20028;-80
2022/04/01 00:14:57;;;;;;;8.57;4.68;;;;;;;;;;7427498;19;20003;-80
2022/04/01 00:17:22;;;;;;;7.13;4.43;;;;;;;;;;7427461;19;20036;-80
2022/04/01 00:19:48;;;;;;;6.63;4.20;;;;;;;;;;7421805;19;20077;-81
2022/04/01 00:22:13;;;;;;;5.60;4.15;;;;;;;;;;7414593;19;20356;-79
2022/04/01 00:24:38;;;;;;;5.95;4.47;;;;;;;;;;7392928;19;20520;-79
2022/04/01 00:27:04;;;;;;;9.20;4.63;;;;;;;;;;7394557;19;20021;-80
2022/04/01 00:29:30;;;;;;;8.07;4.30;;;;;;;;;;7394228;19;20012;-79
2022/04/01 00:31:59;;;;;;;10.00;4.15;;;;;;;;;;7394476;19;20104;-79
2022/04/01 00:34:28;;;;;;;4.95;3.45;;;;;;;;;;7395114;19;20042;-79
2022/04/01 00:36:55;;;;;;;6.60;3.95;;;;;;;;;;7392772;19;20051;-79
2022/04/01 00:39:21;;;;;;;5.43;3.88;;;;;;;;;;7392805;19;20006;-79
2022/04/01 00:41:47;;;;;;;5.40;4.00;;;;;;;;;;7391725;19;20002;-80
2022/04/01 00:44:17;;;;;;;5.65;4.07;;;;;;;;;;7395535;19;20025;-79
2022/04/01 00:46:45;;;;;;;6.88;3.65;;;;;;;;;;7395089;19;20359;-80
2022/04/01 00:49:11;;;;;;;6.45;4.00;;;;;;;;;;7394954;19;20011;-79
2022/04/01 00:51:37;;;;;;;6.10;4.35;;;;;;;;;;7390917;19;20362;-79
2022/04/01 00:54:06;;;;;;;5.10;3.72;;;;;;;;;;7393839;19;20018;-78
2022/04/01 00:56:34;;;;;;;6.28;4.35;;;;;;;;;;7391814;19;20078;-78
2022/04/01 00:59:00;;;;;;;5.13;3.75;;;;;;;;;;7393047;19;20011;-79
2022/04/01 01:01:26;;;;;;;5.65;3.85;;;;;;;;;;7390811;19;20017;-79
2022/04/01 01:03:51;;;;;;;5.10;3.42;;;;;;;;;;7394889;19;20353;-80
2022/04/01 01:06:19;;;;;;;5.47;3.60;;;;;;;;;;7398851;19;20439;-80
2022/04/01 01:08:45;;;;;;;5.00;3.65;;;;;;;;;;7397708;19;20006;-81
2022/04/01 01:11:10;;;;;;;5.13;3.45;;;;;;;;;;7399112;19;20013;-80
2022/04/01 01:13:36;;;;;;;6.88;4.05;;;;;;;;;;7398013;19;20002;-79
2022/04/01 01:16:01;;;;;;;6.22;3.10;;;;;;;;;;7397846;19;20010;-79
2022/04/01 01:18:27;;;;;;;4.60;3.03;;;;;;;;;;7397029;19;20015;-80
2022/04/01 01:20:52;;;;;;;4.50;3.22;;;;;;;;;;7396570;19;20753;-79
2022/04/01 01:23:18;;;;;;;5.95;3.55;;;;;;;;;;7394468;19;20438;-80
2022/04/01 01:25:45;;;;;;;3.95;2.70;;;;;;;;;;7395617;19;20067;-78
2022/04/01 01:28:11;;;;;;;4.28;2.85;;;;;;;;;;7391598;19;20010;-77
2022/04/01 01:30:37;;;;;;;3.63;2.70;;;;;;;;;;7392585;19;20037;-78
2022/04/01 01:33:02;;;;;;;6.25;3.63;;;;;;;;;;7389164;19;20018;-77
2022/04/01 01:35:28;;;;;;;4.35;2.80;;;;;;;;;;7392700;19;20028;-77
2022/04/01 01:37:54;;;;;;;5.22;2.70;;;;;;;;;;7391910;19;20007;-78
2022/04/01 01:40:19;;;;;;;3.80;2.60;;;;;;;;;;7387692;19;20035;-78
2022/04/01 01:42:44;;;;;;;4.57;2.90;;;;;;;;;;7388766;19;20027;-78
2022/04/01 01:45:10;;;;;;;4.15;2.72;;;;;;;;;;7392166;19;20032;-78
2022/04/01 01:47:35;;;;;;;3.92;2.90;;;;;;;;;;7387228;19;20014;-78
2022/04/01 01:55:29;;;;;;;3.22;2.08;;;;;;;;;;7391868;19;20161;-78
2022/04/01 01:57:56;;;;;;;4.00;2.45;;;;;;;;;;7390080;19;20123;-78
2022/04/01 02:00:22;;;;;;;3.40;2.40;;;;;;;;;;7391186;19;20560;-78
2022/04/01 02:02:48;;;;;;;3.30;2.33;;;;;;;;;;7391028;19;20461;-78
2022/04/01 02:05:16;;;;;;;2.88;2.03;;;;;;;;;;7393476;19;20475;-78
2022/04/01 02:07:41;;;;;;;3.10;2.30;;;;;;;;;;7392113;19;20014;-78
2022/04/01 02:10:07;;;;;;;5.30;2.40;;;;;;;;;;7393551;19;20458;-78
2022/04/01 02:12:32;;;;;;;2.92;2.20;;;;;;;;;;7392677;19;20021;-78
2022/04/01 02:14:59;;;;;;;2.53;2.03;;;;;;;;;;7393416;19;20011;-78
2022/04/01 02:17:24;;;;;;;3.53;2.05;;;;;;;;;;7394982;19;20118;-78
2022/04/01 02:19:50;;;;;;;2.58;2.03;;;;;;;;;;7397023;19;20106;-78
2022/04/01 02:22:16;;;;;;;3.15;1.92;;;;;;;;;;7392679;19;20014;-77
2022/04/01 02:24:41;;;;;;;5.05;1.67;;;;;;;;;;7398247;19;20660;-79
2022/04/01 02:27:07;;;;;;;2.90;1.95;;;;;;;;;;7393203;19;20300;-79
2022/04/01 02:29:32;;;;;;;3.38;2.17;;;;;;;;;;7392513;19;20448;-78
2022/04/01 02:31:58;;;;;;;2.58;1.85;;;;;;;;;;7393353;19;20014;-79
2022/04/01 02:34:25;;;;;;;2.60;1.83;;;;;;;;;;7397486;19;20002;-79
2022/04/01 02:36:51;;;;;;;2.88;1.90;;;;;;;;;;7393203;19;20038;-78
2022/04/01 02:39:16;;;;;;;2.63;1.90;;;;;;;;;;7396781;19;20002;-79
2022/04/01 02:41:42;;;;;;;1.92;1.73;;;;;;;;;;7395444;19;20015;-78
2022/04/01 02:44:12;;;;;;;2.55;1.92;;;;;;;;;;7392798;19;20003;-80
2022/04/01 02:46:43;;;;;;;2.60;1.50;;;;;;;;;;7393127;19;20006;-79
2022/04/01 02:49:11;;;;;;;3.50;2.10;;;;;;;;;;7391996;19;20033;-79
2022/04/01 02:51:39;;;;;;;2.38;1.63;;;;;;;;;;7393578;19;20022;-78
2022/04/01 02:54:06;;;;;;;2.72;1.70;;;;;;;;;;7392900;19;20351;-79
2022/04/01 02:56:36;;;;;;;3.00;1.80;;;;;;;;;;7391496;19;20368;-79
2022/04/01 02:59:03;;;;;;;3.50;1.80;;;;;;;;;;7393652;19;20050;-79
2022/04/01 03:01:28;;;;;;;2.05;1.60;;;;;;;;;;7398815;19;20143;-79
2022/04/01 03:03:55;;;;;;;3.15;1.58;;;;;;;;;;7399232;19;20335;-79
2022/04/01 03:06:21;;;;;;;2.85;1.80;;;;;;;;;;7401840;19;20018;-78
2022/04/01 03:08:47;;;;;;;1.52;1.35;;;;;;;;;;7402715;19;20062;-78
2022/04/01 03:11:12;;;;;;;2.75;2.05;;;;;;;;;;7402736;19;20011;-80
2022/04/01 03:13:37;;;;;;;2.97;2.03;;;;;;;;;;7402540;19;20020;-80
2022/04/01 03:16:03;;;;;;;2.67;1.80;;;;;;;;;;7403060;19;20006;-79
2022/04/01 03:18:28;;;;;;;5.40;1.90;;;;;;;;;;7400644;19;20003;-79
2022/04/01 03:20:53;;;;;;;3.15;2.10;;;;;;;;;;7401705;19;20028;-79
2022/04/01 03:23:19;;;;;;;4.60;2.03;;;;;;;;;;7395112;19;20489;-81
2022/04/01 03:25:45;;;;;;;3.17;1.80;;;;;;;;;;7399245;19;20007;-80
2022/04/01 03:28:10;;;;;;;2.60;1.77;;;;;;;;;;7396867;19;20002;-79
2022/04/01 03:30:35;;;;;;;2.85;1.80;;;;;;;;;;7398039;19;20082;-80
2022/04/01 03:33:01;;;;;;;3.25;1.77;;;;;;;;;;7397667;19;19999;-81
2022/04/01 03:35:27;;;;;;;1.80;1.35;;;;;;;;;;7396523;19;20021;-81
2022/04/01 03:37:53;;;;;;;3.20;2.08;;;;;;;;;;7402068;19;20009;-80
2022/04/01 03:40:19;;;;;;;2.90;1.60;;;;;;;;;;7396969;19;20011;-77
2022/04/01 03:42:46;;;;;;;2.22;1.42;;;;;;;;;;7393322;19;20582;-79
2022/04/01 03:45:17;;;;;;;1.42;1.33;;;;;;;;;;7399049;19;20010;-79
2022/04/01 03:47:52;;;;;;;2.53;1.70;;;;;;;;;;7399919;19;20011;-79
2022/04/01 03:50:27;;;;;;;4.28;1.80;;;;;;;;;;7398487;19;20114;-79
2022/04/01 03:53:00;;;;;;;3.70;2.08;;;;;;;;;;7405866;19;20014;-79
2022/04/01 03:55:30;;;;;;;2.10;1.55;;;;;;;;;;7412466;19;20007;-79
2022/04/01 03:58:00;;;;;;;1.80;1.33;;;;;;;;;;7413191;19;20346;-79
2022/04/01 04:00:26;;;;;;;1.58;1.40;;;;;;;;;;7423267;19;20018;-80
2022/04/01 04:02:53;;;;;;;2.67;1.77;;;;;;;;;;7424578;19;20015;-78
2022/04/01 04:05:21;;;;;;;1.50;1.30;;;;;;;;;;7427604;19;19995;-80
2022/04/01 04:07:48;;;;;;;3.28;1.55;;;;;;;;;;7428156;19;20031;-78
2022/04/01 04:10:13;;;;;;;2.95;1.50;;;;;;;;;;7417657;19;20007;-80
2022/04/01 04:12:43;;;;;;;1.25;1.08;;;;;;;;;;7400063;19;20032;-80
2022/04/01 04:15:09;;;;;;;1.25;0.95;;;;;;;;;;7406095;19;20010;-80
2022/04/01 04:17:37;;;;;;;2.28;1.27;;;;;;;;;;7406579;19;20027;-80
2022/04/01 04:20:23;;;;;;;0.93;0.82;;;;;;;;;;7407978;19;20006;-79
2022/04/01 04:22:50;;;;;;;1.80;0.75;;;;;;;;;;7406136;19;20015;-80
2022/04/01 04:25:21;;;;;;;0.90;0.90;;;;;;;;;;7403371;19;20005;-78
2022/04/01 04:27:58;;;;;;;0.85;0.80;;;;;;;;;;7397503;19;20411;-78
2022/04/01 04:30:35;;;;;;;1.50;0.47;;;;;;;;;;7395230;19;20010;-78
2022/04/01 04:33:08;;;;;;;1.58;0.70;;;;;;;;;;7404579;19;20051;-79
2022/04/01 04:35:40;;;;;;;0.60;0.52;;;;;;;;;;7405911;19;20015;-80
2022/04/01 04:38:07;;;;;;;1.15;0.80;;;;;;;;;;7398703;19;20010;-83
2022/04/01 04:40:34;;;;;;;1.05;0.60;;;;;;;;;;7397247;19;20017;-79
2022/04/01 04:43:00;;;;;;;0.73;0.63;;;;;;;;;;7393864;19;20003;-77
2022/04/01 04:45:27;;;;;;;1.50;0.70;;;;;;;;;;7393087;19;20010;-78
2022/04/01 04:47:52;;;;;;;0.80;0.55;;;;;;;;;;7397224;19;20491;-77
2022/04/01 04:50:19;;;;;;;0.60;0.60;;;;;;;;;;7396247;19;20015;-79
2022/04/01 04:52:48;;;;;;;1.67;1.27;;;;;;;;;;7390120;19;20022;-77
2022/04/01 04:55:14;;;;;;;1.45;1.10;;;;;;;;;;7398134;19;20426;-78
2022/04/01 04:57:42;;;;;;;2.08;1.15;;;;;;;;;;7396611;19;20022;-77
2022/04/01 05:00:08;;;;;;;1.95;0.98;;;;;;;;;;7394720;19;20443;-78
2022/04/01 05:02:52;;;;;;;1.55;1.10;;;;;;;;;;7394129;19;20010;-78
2022/04/01 05:05:27;;;;;;;1.48;0.90;;;;;;;;;;7396248;19;20489;-79
2022/04/01 05:08:02;;;;;;;0.93;0.80;;;;;;;;;;7396474;19;20042;-81
2022/04/01 05:10:41;;;;;;;1.17;1.08;;;;;;;;;;7389217;19;20033;-78
2022/04/01 05:13:29;;;;;;;1.30;0.98;;;;;;;;;;7392565;19;20041;-76
2022/04/01 05:16:07;;;;;;;1.10;1.00;;;;;;;;;;7388466;19;20149;-77
2022/04/01 05:18:40;;;;;;;2.83;1.25;;;;;;;;;;7394354;19;20009;-76
2022/04/01 05:21:19;;;;;;;1.30;0.85;;;;;;;;;;7392901;19;20004;-77
2022/04/01 05:23:54;;;;;;;1.30;1.20;;;;;;;;;;7394007;19;20018;-77
2022/04/01 05:26:25;;;;;;;1.05;0.75;;;;;;;;;;7390107;19;20003;-78
2022/04/01 05:29:00;;;;;;;1.63;1.20;;;;;;;;;;7391426;19;20058;-77
2022/04/01 05:31:25;;;;;;;;;;;;;;;;;;7395635;19;20011;-78
2022/04/01 05:34:15;;;;;;;1.00;0.77;;;;;;;;;;7394343;19;20398;-78
2022/04/01 05:36:43;;;;;;;0.80;0.70;;;;;;;;;;7390673;19;20264;-78
2022/04/01 05:39:11;;;;;;;1.65;1.15;;;;;;;;;;7392841;19;20549;-79
2022/04/01 05:41:37;;;;;;;1.67;1.25;;;;;;;;;;7390640;19;20003;-78
2022/04/01 05:44:04;;;;;;;1.92;1.20;;;;;;;;;;7388733;19;20017;-79
2022/04/01 05:46:30;;;;;;;1.17;1.08;;;;;;;;;;7391045;19;20386;-79
2022/04/01 05:48:57;;;;;;;1.88;1.30;;;;;;;;;;7386238;19;20027;-80
2022/04/01 05:51:25;;;;;;;1.25;1.00;;;;;;;;;;7391695;19;20434;-80
2022/04/01 05:53:52;;;;;;;2.08;1.20;;;;;;;;;;7390954;19;20006;-78
2022/04/01 05:56:17;;;;;;;1.48;1.10;;;;;;;;;;7393154;19;19999;-79
2022/04/01 05:58:43;;;;;;;1.63;0.90;;;;;;;;;;7391422;19;20014;-78
2022/04/01 06:01:14;;;;;;;1.23;1.10;;;;;;;;;;7394859;19;20011;-79
2022/04/01 06:04:00;;;;;;;1.90;1.48;;;;;;;;;;7390832;19;20027;-79
2022/04/01 06:06:44;;;;;;;1.30;0.80;;;;;;;;;;7391746;19;20150;-80
2022/04/01 06:09:36;;;;;;;0.75;0.70;;;;;;;;;;7399659;19;20009;-80
2022/04/01 06:12:09;;;;;;;1.23;0.80;;;;;;;;;;7392823;19;20014;-80
2022/04/01 06:14:50;;;;;;;3.90;1.02;;;;;;;;;;7394456;19;20007;-81
2022/04/01 06:17:29;;;;;;;1.55;0.90;;;;;;;;;;7394973;19;20024;-79
2022/04/01 06:19:57;;;;;;;1.05;0.90;;;;;;;;;;7393675;19;20035;-79
2022/04/01 06:22:27;;;;;;;1.05;0.63;;;;;;;;;;7391398;19;20300;-80
2022/04/01 06:25:20;;;;;;;3.35;0.90;;;;;;;;;;7394298;19;20006;-79
2022/04/01 06:27:52;;;;;;;0.98;0.75;;;;;;;;;;7394284;19;20073;-79
2022/04/01 06:30:20;;;;;;;1.95;0.60;;;;;;;;;;7394708;19;19994;-77
2022/04/01 06:32:55;;;;;;;1.20;0.68;;;;;;;;;;7387660;19;20007;-79
2022/04/01 06:35:45;;;;;;;0.80;0.60;;;;;;;;;;7397555;19;20066;-77
2022/04/01 06:38:18;;;;;;;0.47;0.47;;;;;;;;;;7397245;19;20359;-77
2022/04/01 06:40:52;;;;;;;1.13;0.77;;;;;;;;;;7396071;19;20020;-77
2022/04/01 06:43:17;;;;;;;0.88;0.50;;;;;;;;;;7397794;19;20489;-78
2022/04/01 06:45:43;;;;;;;0.60;0.60;;;;;;;;;;7395929;19;20019;-77
2022/04/01 06:48:08;;;;;;;0.60;0.60;;;;;;;;;;7401284;19;20032;-77
2022/04/01 06:50:34;;;;;;;0.77;0.50;;;;;;;;;;7398869;19;20003;-77
2022/04/01 06:52:59;;;;;;;0.52;0.50;;;;;;;;;;7387744;19;20010;-77
2022/04/01 06:55:26;;;;;;;0.57;0.57;;;;;;;;;;7397658;19;20014;-77
2022/04/01 06:57:52;;;;;;;0.60;0.60;;;;;;;;;;7408996;19;19999;-77
2022/04/01 07:00:18;;;;;;;0.98;0.93;;;;;;;;;;7396455;19;20039;-77
2022/04/01 07:02:45;;;;;;;1.00;0.90;;;;;;;;;;7391241;19;20010;-77
2022/04/01 07:05:11;;;;;;;0.65;0.45;;;;;;;;;;7396302;19;20090;-77
2022/04/01 07:07:38;;;;;;;0.50;0.50;;;;;;;;;;7393213;19;20019;-76
2022/04/01 07:10:05;;;;;;;0.52;0.52;;;;;;;;;;7394978;19;20011;-76
2022/04/01 07:12:32;;;;;;;0.40;0.40;;;;;;;;;;7390307;19;20007;-77
2022/04/01 07:14:58;;;;;;;0.50;0.50;;;;;;;;;;7394628;19;20079;-77
2022/04/01 07:17:24;;;;;;;0.90;0.60;;;;;;;;;;7394237;19;20012;-77
2022/04/01 07:19:49;;;;;;;0.50;0.50;;;;;;;;;;7421746;19;20006;-77
2022/04/01 07:22:15;;;;;;;0.57;0.40;;;;;;;;;;7426424;19;19995;-77
2022/04/01 07:24:40;;;;;;;0.40;0.40;;;;;;;;;;7424025;19;20081;-77
2022/04/01 07:27:05;;;;;;;0.60;0.60;;;;;;;;;;7427464;19;20014;-77
2022/04/01 07:29:31;;;;;;;0.57;0.47;;;;;;;;;;7413874;19;20026;-78
2022/04/01 07:34:43;;;;;;;0.30;0.30;;;;;;;;;;7403391;19;20027;-78
2022/04/01 07:37:09;;;;;;;0.38;0.30;;;;;;;;;;7398957;19;20018;-78
2022/04/01 07:39:35;;;;;;;0.35;0.35;;;;;;;;;;7401418;19;20003;-78
2022/04/01 07:42:00;;;;;;;0.57;0.57;;;;;;;;;;7398694;19;20513;-79
2022/04/01 07:44:26;;;;;;;0.98;0.45;;;;;;;;;;7401280;19;20555;-79
2022/04/01 07:46:52;;;;;;;0.63;0.43;;;;;;;;;;7394616;19;20019;-79
2022/04/01 07:49:18;;;;;;;0.73;0.57;;;;;;;;;;7394729;19;20112;-80
2022/04/01 07:51:44;;;;;;;0.40;0.40;;;;;;;;;;7395272;19;20104;-77
2022/04/01 07:54:15;;;;;;;0.50;0.50;;;;;;;;;;7399973;19;20003;-78
2022/04/01 07:56:42;;;;;;;0.50;0.50;;;;;;;;;;7397834;19;20045;-79
2022/04/01 07:59:08;;;;;;;0.47;0.47;;;;;;;;;;7399734;19;20424;-79
2022/04/01 08:01:35;;;;;;;1.02;0.28;;;;;;;;;;7395140;19;20058;-79
2022/04/01 08:04:00;;;;;;;0.30;0.30;;;;;;;;;;7394166;19;20015;-79
2022/04/01 08:06:25;;;;;;;0.45;0.40;;;;;;;;;;7401701;19;20034;-79
2022/04/01 08:08:51;;;;;;;1.13;0.50;;;;;;;;;;7401321;19;20112;-79
2022/04/01 08:11:16;;;;;;;0.28;0.28;;;;;;;;;;7407955;19;20010;-78
2022/04/01 08:13:41;;;;;;;0.80;0.47;;;;;;;;;;7404032;19;20036;-80
2022/04/01 08:16:08;;;;;;;0.68;0.40;;;;;;;;;;7400548;19;20014;-80
2022/04/01 08:18:33;;;;;;;0.28;0.28;;;;;;;;;;7402054;19;20356;-79
2022/04/01 08:20:59;;;;;;;0.35;0.35;;;;;;;;;;7406160;19;20023;-79
2022/04/01 08:23:24;;;;;;;0.65;0.50;;;;;;;;;;7406030;19;20083;-79
2022/04/01 08:25:49;;;;;;;0.40;0.40;;;;;;;;;;7405712;19;20006;-79
2022/04/01 08:28:14;;;;;;;0.57;0.40;;;;;;;;;;7403023;19;20011;-80
2022/04/01 08:30:41;;;;;;;1.25;0.20;;;;;;;;;;7404287;19;20027;-79
2022/04/01 08:33:07;;;;;;;0.52;0.50;;;;;;;;;;7396392;19;20042;-80
2022/04/01 08:35:33;;;;;;;0.80;0.80;;;;;;;;;;7400884;19;20108;-79
2022/04/01 08:37:58;;;;;;;0.40;0.40;;;;;;;;;;7400355;19;20046;-79
2022/04/01 08:40:25;;;;;;;0.50;0.50;;;;;;;;;;7398133;19;20023;-79
2022/04/01 08:42:50;;;;;;;0.90;0.55;;;;;;;;;;7399018;19;20014;-79
2022/04/01 08:45:17;;;;;;;0.40;0.40;;;;;;;;;;7398055;19;19999;-79
2022/04/01 08:47:43;;;;;;;0.85;0.68;;;;;;;;;;7400049;19;20051;-79
2022/04/01 08:50:08;;;;;;;2.58;0.77;;;;;;;;;;7396120;19;20042;-79
2022/04/01 08:52:34;;;;;;;0.50;0.40;;;;;;;;;;7400055;19;20033;-80
2022/04/01 08:55:05;;;;;;;2.40;1.00;;;;;;;;;;7398355;19;20010;-79
2022/04/01 08:57:42;;;;;;;0.60;0.60;;;;;;;;;;7400654;19;20009;-79
2022/04/01 09:00:13;;;;;;;2.47;1.15;;;;;;;;;;7396578;19;20481;-80
2022/04/01 09:02:40;;;;;;;2.63;1.33;;;;;;;;;;7389970;19;20390;-79
2022/04/01 09:05:07;;;;;;;4.38;1.80;;;;;;;;;;7397669;19;20035;-79
2022/04/01 09:07:33;;;;;;;1.42;0.98;;;;;;;;;;7403919;19;20486;-79
2022/04/01 09:10:06;;;;;;;0.40;0.32;;;;;;;;;;7415869;19;20070;-79
2022/04/01 09:12:34;;;;;;;0.30;0.30;;;;;;;;;;7400879;19;20351;-80
2022/04/01 09:15:00;;;;;;;0.25;0.25;;;;;;;;;;7401643;19;20039;-80
2022/04/01 09:17:43;;;;;;;0.65;0.65;;;;;;;;;;7399124;19;20003;-80
2022/04/01 09:20:10;;;;;;;0.28;0.28;;;;;;;;;;7393212;19;20006;-81
2022/04/01 09:22:36;;;;;;;0.45;0.32;;;;;;;;;;7394743;19;20006;-80
2022/04/01 09:25:11;;;;;;;2.13;0.38;;;;;;;;;;7398510;19;20024;-79
2022/04/01 09:27:50;;;;;;;0.40;0.40;;;;;;;;;;7397423;19;20010;-80
2022/04/01 09:30:21;;;;;;;0.40;0.40;;;;;;;;;;7396146;19;20499;-79
2022/04/01 09:32:47;;;;;;;0.82;0.70;;;;;;;;;;7397586;19;20006;-79
2022/04/01 09:35:14;;;;;;;2.17;0.98;;;;;;;;;;7397244;19;20014;-80
2022/04/01 09:37:52;;;;;;;0.55;0.40;;;;;;;;;;7394391;19;20010;-77
2022/04/01 09:40:20;;;;;;;0.47;0.32;;;;;;;;;;7393000;19;20486;-78
2022/04/01 09:42:51;;;;;;;0.47;0.47;;;;;;;;;;7393524;19;20014;-78
2022/04/01 09:45:19;;;;;;;1.00;0.60;;;;;;;;;;7394383;19;20010;-79
2022/04/01 09:47:45;;;;;;;0.40;0.40;;;;;;;;;;7393213;19;20495;-79
2022/04/01 09:50:17;;;;;;;0.50;0.50;;;;;;;;;;7391282;19;20037;-78
2022/04/01 09:52:42;;;;;;;0.77;0.57;;;;;;;;;;7390529;19;20494;-78
2022/04/01 09:55:09;;;;;;;0.68;0.40;;;;;;;;;;7395782;19;20006;-78
2022/04/01 09:57:35;;;;;;;0.35;0.30;;;;;;;;;;7394323;19;20002;-78
2022/04/01 10:00:01;;;;;;;1.88;0.60;;;;;;;;;;7395172;19;20011;-78
2022/04/01 10:02:27;;;;;;;0.88;0.63;;;;;;;;;;7395525;19;20002;-78
2022/04/01 10:04:54;;;;;;;1.52;0.80;;;;;;;;;;7395859;19;20013;-78
2022/04/01 10:07:22;;;;;;;1.23;0.73;;;;;;;;;;7395741;19;20010;-79
2022/04/01 10:09:49;;;;;;;1.73;1.00;;;;;;;;;;7399040;19;20014;-78
2022/04/01 10:12:17;;;;;;;0.73;0.63;;;;;;;;;;7403287;19;19999;-78
2022/04/01 10:14:43;;;;;;;2.22;0.32;;;;;;;;;;7406802;19;20035;-78
2022/04/01 10:17:15;;;;;;;1.13;0.30;;;;;;;;;;7400520;19;20011;-77
2022/04/01 10:19:42;;;;;;;0.40;0.30;;;;;;;;;;7400756;19;20014;-78
2022/04/01 10:22:07;;;;;;;1.05;0.52;;;;;;;;;;7399899;19;20022;-78
2022/04/01 10:24:54;;;;;;;3.90;0.85;;;;;;;;;;7402207;19;20015;-79
2022/04/01 10:27:29;;;;;;;1.35;0.50;;;;;;;;;;7398271;19;20010;-78
2022/04/01 10:29:57;;;;;;;2.05;0.63;;;;;;;;;;7402448;19;20014;-79
2022/04/01 10:32:25;;;;;;;0.98;0.30;;;;;;;;;;7396827;19;20019;-79
2022/04/01 10:34:53;;;;;;;2.88;1.20;;;;;;;;;;7401050;19;20006;-78
2022/04/01 10:37:21;;;;;;;1.65;0.88;;;;;;;;;;7401693;19;20010;-78
2022/04/01 10:39:58;;;;;;;3.13;1.27;;;;;;;;;;7399172;19;20006;-79
2022/04/01 10:42:35;;;;;;;2.65;0.85;;;;;;;;;;7397917;19;20118;-78
2022/04/01 10:45:07;;;;;;;4.97;2.15;;;;;;;;;;7400132;19;20011;-78
2022/04/01 10:53:39;;;;;;;1.33;0.35;;;;;;;;;;7399139;19;20017;-78
2022/04/01 10:56:26;;;;;;;0.88;0.60;;;;;;;;;;7398641;19;20022;-78
2022/04/01 10:59:03;;;;;;;0.55;0.50;;;;;;;;;;7396214;19;20471;-78
2022/04/01 11:01:29;;;;;;;1.00;0.80;;;;;;;;;;7397542;19;20010;-78
2022/04/01 11:04:07;;;;;;;1.10;0.60;;;;;;;;;;7398529;19;19999;-78
2022/04/01 11:06:32;;;;;;;0.60;0.60;;;;;;;;;;7399422;19;20017;-78
2022/04/01 11:08:57;;;;;;;0.50;0.43;;;;;;;;;;7393097;19;20010;-78
2022/04/01 11:11:23;;;;;;;0.30;0.30;;;;;;;;;;7394654;19;20134;-78
2022/04/01 11:14:06;;;;;;;0.85;0.50;;;;;;;;;;7398692;19;20494;-78
2022/04/01 11:16:46;;;;;;;0.40;0.40;;;;;;;;;;7396187;19;20006;-78
2022/04/01 11:19:18;;;;;;;1.40;0.50;;;;;;;;;;7398024;19;20474;-78
2022/04/01 11:21:46;;;;;;;0.60;0.40;;;;;;;;;;7394846;19;20118;-78
2022/04/01 11:24:29;;;;;;;1.65;0.50;;;;;;;;;;7392857;19;20011;-79
2022/04/01 11:26:55;;;;;;;0.85;0.20;;;;;;;;;;7400398;19;20014;-79
2022/04/01 11:29:22;;;;;;;0.52;0.40;;;;;;;;;;7396502;19;20014;-78
2022/04/01 11:31:47;;;;;;;0.30;0.30;;;;;;;;;;7396185;19;20334;-79
2022/04/01 11:34:13;;;;;;;0.32;0.32;;;;;;;;;;7396749;19;20006;-79
2022/04/01 11:36:40;;;;;;;0.30;0.30;;;;;;;;;;7397122;19;20010;-78
2022/04/01 11:39:06;;;;;;;0.60;0.60;;;;;;;;;;7394420;19;20035;-78
2022/04/01 11:41:44;;;;;;;1.52;1.00;;;;;;;;;;7394255;19;20316;-77
2022/04/01 11:44:10;;;;;;;0.40;0.40;;;;;;;;;;7393484;19;20002;-78
2022/04/01 11:46:36;;;;;;;0.47;0.35;;;;;;;;;;7398461;19;20013;-78
2022/04/01 11:49:03;;;;;;;0.57;0.50;;;;;;;;;;7395885;19;20019;-78
2022/04/01 11:51:28;;;;;;;0.43;0.43;;;;;;;;;;7398785;19;20007;-78
2022/04/01 11:53:56;;;;;;;0.15;0.15;;;;;;;;;;7400954;19;20014;-78
2022/04/01 11:56:23;;;;;;;0.30;0.20;;;;;;;;;;7398214;19;20006;-77
2022/04/01 11:58:50;;;;;;;0.45;0.45;;;;;;;;;;7398195;19;20006;-79
2022/04/01 12:01:17;;;;;;;0.50;0.50;;;;;;;;;;7393315;19;20399;-79
2022/04/01 12:03:42;;;;;;;0.88;0.40;;;;;;;;;;7395135;19;20040;-79
2022/04/01 12:08:52;;;;;;;0.40;0.40;;;;;;;;;;7397912;19;20033;-79
2022/04/01 12:11:17;;;;;;;0.45;0.45;;;;;;;;;;7398196;19;20074;-79
2022/04/01 12:13:53;;;;;;;0.22;0.22;;;;;;;;;;7399529;19;20332;-80
2022/04/01 12:16:21;;;;;;;0.40;0.40;;;;;;;;;;7394729;19;20014;-79
2022/04/01 12:18:47;;;;;;;0.52;0.20;;;;;;;;;;7393600;19;20018;-79
2022/04/01 12:21:17;;;;;;;0.38;0.35;;;;;;;;;;7396960;19;20006;-78
2022/04/01 12:23:48;;;;;;;0.30;0.30;;;;;;;;;;7392854;19;20007;-79
2022/04/01 12:26:25;;;;;;;0.40;0.40;;;;;;;;;;7393608;19;19999;-78
2022/04/01 12:28:50;;;;;;;0.38;0.38;;;;;;;;;;7394663;19;20071;-78
2022/04/01 12:31:21;;;;;;;0.30;0.30;;;;;;;;;;7390815;19;20043;-77
2022/04/01 12:33:50;;;;;;;0.30;0.30;;;;;;;;;;7395666;19;20414;-78
2022/04/01 12:36:18;;;;;;;0.30;0.30;;;;;;;;;;7396973;19;20481;-78
2022/04/01 12:38:59;;;;;;;0.50;0.50;;;;;;;;;;7394226;19;20142;-78
2022/04/01 12:41:25;;;;;;;0.57;0.57;;;;;;;;;;7394922;19;20014;-78
2022/04/01 12:43:54;;;;;;;0.75;0.57;;;;;;;;;;7397660;19;20028;-79
2022/04/01 12:46:31;;;;;;;0.65;0.60;;;;;;;;;;7400620;19;20002;-80
2022/04/01 12:49:10;;;;;;;0.30;0.30;;;;;;;;;;7400802;19;20019;-80
2022/04/01 12:51:36;;;;;;;0.45;0.45;;;;;;;;;;7398248;19;20376;-80
2022/04/01 12:54:03;;;;;;;0.50;0.50;;;;;;;;;;7401150;19;20486;-80
2022/04/01 12:56:48;;;;;;;0.73;0.68;;;;;;;;;;7396787;19;20027;-80
2022/04/01 12:59:18;;;;;;;0.77;0.70;;;;;;;;;;7397803;19;20017;-80
2022/04/01 13:01:54;;;;;;;0.47;0.47;;;;;;;;;;7398683;19;20659;-80
2022/04/01 13:04:21;;;;;;;0.47;0.40;;;;;;;;;;7397184;19;20014;-79
2022/04/01 13:07:12;;;;;;;0.65;0.60;;;;;;;;;;7398347;19;20018;-79
2022/04/01 13:09:54;;;;;;;0.80;0.57;;;;;;;;;;7396246;19;20006;-80
2022/04/01 13:12:22;;;;;;;0.70;0.60;;;;;;;;;;7398898;19;20466;-79
2022/04/01 13:15:05;;;;;;;0.60;0.60;;;;;;;;;;7399460;19;20002;-79
2022/04/01 13:17:50;;;;;;;0.75;0.52;;;;;;;;;;7397645;19;20006;-80
2022/04/01 13:20:20;;;;;;;0.98;0.80;;;;;;;;;;7398391;19;20003;-81
2022/04/01 13:22:46;;;;;;;0.60;0.60;;;;;;;;;;7403011;19;20491;-80
2022/04/01 13:25:15;;;;;;;0.45;0.45;;;;;;;;;;7402505;19;19998;-80
2022/04/01 13:27:41;;;;;;;0.60;0.50;;;;;;;;;;7400926;19;20013;-80
2022/04/01 13:30:08;;;;;;;0.40;0.40;;;;;;;;;;7402765;19;20023;-80
2022/04/01 13:32:34;;;;;;;0.70;0.57;;;;;;;;;;7400694;19;20349;-80
2022/04/01 13:35:00;;;;;;;0.73;0.73;;;;;;;;;;7402664;19;20438;-80
2022/04/01 13:37:25;;;;;;;0.80;0.80;;;;;;;;;;7401556;19;20027;-80
2022/04/01 13:39:51;;;;;;;1.02;0.60;;;;;;;;;;7396988;19;20344;-80
2022/04/01 13:42:16;;;;;;;1.38;0.50;;;;;;;;;;7390216;19;20181;-78
2022/04/01 13:44:42;;;;;;;0.40;0.40;;;;;;;;;;7398513;19;20526;-79
2022/04/01 13:47:08;;;;;;;0.30;0.30;;;;;;;;;;7399215;19;20006;-78
2022/04/01 13:49:34;;;;;;;1.55;0.30;;;;;;;;;;7400257;19;20002;-80
2022/04/01 13:52:00;;;;;;;0.30;0.20;;;;;;;;;;7395741;19;20352;-78
2022/04/01 13:54:27;;;;;;;0.40;0.25;;;;;;;;;;7391162;19;20034;-78
2022/04/01 13:56:53;;;;;;;0.40;0.20;;;;;;;;;;7392297;19;20010;-77
2022/04/01 13:59:19;;;;;;;0.20;0.20;;;;;;;;;;7395382;19;20016;-79
2022/04/01 14:01:45;;;;;;;0.55;0.30;;;;;;;;;;7397869;19;20522;-79
2022/04/01 14:04:10;;;;;;;0.40;0.40;;;;;;;;;;7396925;19;20755;-79
2022/04/01 14:06:35;;;;;;;0.43;0.43;;;;;;;;;;7396811;19;20370;-77
2022/04/01 14:09:06;;;;;;;0.85;0.32;;;;;;;;;;7394145;19;20017;-78
2022/04/01 14:11:35;;;;;;;0.63;0.40;;;;;;;;;;7400528;19;20014;-78
2022/04/01 14:14:07;;;;;;;0.65;0.20;;;;;;;;;;7403483;19;20006;-79
2022/04/01 14:16:37;;;;;;;0.50;0.38;;;;;;;;;;7405193;19;20042;-79
2022/04/01 14:19:05;;;;;;;0.63;0.40;;;;;;;;;;7405538;19;20536;-79
2022/04/01 14:21:31;;;;;;;0.40;0.38;;;;;;;;;;7406906;19;20002;-80
2022/04/01 14:23:56;;;;;;;0.38;0.38;;;;;;;;;;7417905;19;20014;-78
2022/04/01 14:26:24;;;;;;;0.73;0.43;;;;;;;;;;7423115;19;20034;-77
2022/04/01 14:28:49;;;;;;;0.45;0.45;;;;;;;;;;7423745;19;19995;-77
2022/04/01 14:31:15;;;;;;;0.40;0.35;;;;;;;;;;7422868;19;20075;-76
2022/04/01 14:33:41;;;;;;;0.40;0.40;;;;;;;;;;7416966;19;19998;-79
2022/04/01 14:36:08;;;;;;;0.47;0.47;;;;;;;;;;7389874;19;20024;-79
2022/04/01 14:38:33;;;;;;;0.82;0.82;;;;;;;;;;7393499;19;20464;-78
2022/04/01 14:40:59;;;;;;;0.43;0.43;;;;;;;;;;7394744;19;20015;-80
2022/04/01 14:43:24;;;;;;;0.30;0.30;;;;;;;;;;7392907;19;20007;-78
2022/04/01 14:45:49;;;;;;;0.68;0.40;;;;;;;;;;7392237;19;20007;-80
2022/04/01 14:48:15;;;;;;;0.60;0.40;;;;;;;;;;7393974;19;20010;-80
2022/04/01 14:50:41;;;;;;;0.45;0.45;;;;;;;;;;7397650;19;20015;-81
2022/04/01 14:53:11;;;;;;;0.55;0.50;;;;;;;;;;7393818;19;20006;-80
2022/04/01 14:55:38;;;;;;;1.00;0.70;;;;;;;;;;7402261;19;20003;-81
2022/04/01 14:58:04;;;;;;;0.50;0.50;;;;;;;;;;7406380;19;20002;-80
2022/04/01 15:00:33;;;;;;;0.70;0.70;;;;;;;;;;7401167;19;20010;-81
2022/04/01 15:03:00;;;;;;;0.60;0.60;;;;;;;;;;7397894;19;20039;-81
2022/04/01 15:05:26;;;;;;;0.82;0.52;;;;;;;;;;7403265;19;20021;-81
2022/04/01 15:07:51;;;;;;;0.60;0.60;;;;;;;;;;7407234;19;20066;-81